createdAt,value
2023-04-18T00:00:21.945Z,19.72
2023-04-18T00:02:52.560Z,19.70
2023-04-18T00:05:24.207Z,19.69
2023-04-18T00:07:55.149Z,19.69
2023-04-18T00:10:31.784Z,19.69
2023-04-18T00:13:04.859Z,19.67
2023-04-18T00:15:34.983Z,19.69
2023-04-18T00:18:12.388Z,19.70
2023-04-18T00:20:41.911Z,19.69
2023-04-18T00:23:13.453Z,19.66
2023-04-18T00:25:48.228Z,19.66
2023-04-18T00:28:16.217Z,19.67
2023-04-18T00:30:49.864Z,19.67
2023-04-18T00:33:26.481Z,19.62
2023-04-18T00:36:03.613Z,19.63
2023-04-18T00:38:39.876Z,19.63
2023-04-18T00:41:18.436Z,19.64
2023-04-18T00:43:49.097Z,19.63
2023-04-18T00:46:20.014Z,19.64
2023-04-18T00:48:48.967Z,19.62
2023-04-18T00:51:23.656Z,19.64
2023-04-18T00:53:55.482Z,19.59
2023-04-18T00:56:23.144Z,19.60
2023-04-18T00:58:53.706Z,19.60
2023-04-18T01:01:27.461Z,19.60
2023-04-18T01:03:58.158Z,19.60
2023-04-18T01:06:26.677Z,19.59
2023-04-18T01:08:58.778Z,19.57
2023-04-18T01:11:26.398Z,19.59
2023-04-18T01:14:08.036Z,19.56
2023-04-18T01:16:42.468Z,19.56
2023-04-18T01:19:12.536Z,19.56
2023-04-18T01:21:45.800Z,19.57
2023-04-18T01:24:23.506Z,19.56
2023-04-18T01:27:00.035Z,19.55
2023-04-18T01:29:30.332Z,19.55
2023-04-18T01:32:10.400Z,19.55
2023-04-18T01:34:44.176Z,19.54
2023-04-18T01:37:18.917Z,19.54
2023-04-18T01:39:51.655Z,19.53
2023-04-18T01:42:27.682Z,19.53
2023-04-18T01:44:57.902Z,19.50
2023-04-18T01:47:25.772Z,19.51
2023-04-18T01:49:56.496Z,19.51
2023-04-18T01:52:27.245Z,19.51
2023-04-18T01:54:58.508Z,19.48
2023-04-18T01:57:29.586Z,19.49
2023-04-18T02:00:07.251Z,19.48
2023-04-18T02:02:35.942Z,19.49
2023-04-18T02:05:14.210Z,19.48
2023-04-18T02:07:47.149Z,19.46
2023-04-18T02:10:23.470Z,19.46
2023-04-18T02:13:00.478Z,19.46
2023-04-18T02:15:35.296Z,19.45
2023-04-18T02:18:16.632Z,19.47
2023-04-18T02:20:50.937Z,19.44
2023-04-18T02:23:27.201Z,19.45
2023-04-18T02:26:06.723Z,19.42
2023-04-18T02:28:39.031Z,19.44
2023-04-18T02:31:13.033Z,19.43
2023-04-18T02:33:49.349Z,19.42
2023-04-18T02:36:25.782Z,19.41
2023-04-18T02:39:00.221Z,19.42
2023-04-18T02:41:34.476Z,19.42
2023-04-18T02:44:11.248Z,19.42
2023-04-18T02:46:42.753Z,19.42
2023-04-18T02:49:13.257Z,19.42
2023-04-18T02:51:41.065Z,19.42
2023-04-18T02:54:15.397Z,19.41
2023-04-18T02:56:46.174Z,19.41
2023-04-18T02:59:18.576Z,19.39
2023-04-18T03:01:49.536Z,19.39
2023-04-18T03:04:17.191Z,19.39
2023-04-18T03:06:47.686Z,19.41
2023-04-18T03:09:22.045Z,19.41
2023-04-18T03:11:50.059Z,19.40
2023-04-18T03:14:20.487Z,19.38
2023-04-18T03:16:55.584Z,19.40
2023-04-18T03:19:26.995Z,19.40
2023-04-18T03:22:03.504Z,19.39
2023-04-18T03:24:37.603Z,19.40
2023-04-18T03:27:14.106Z,19.38
2023-04-18T03:29:51.453Z,19.38
2023-04-18T03:32:27.772Z,19.38
2023-04-18T03:35:04.727Z,19.35
2023-04-18T03:37:45.072Z,19.34
2023-04-18T03:40:22.025Z,19.36
2023-04-18T03:42:59.093Z,19.35
2023-04-18T03:45:32.542Z,19.36
2023-04-18T03:48:00.528Z,19.35
2023-04-18T03:50:31.558Z,19.35
2023-04-18T03:53:08.987Z,19.34
2023-04-18T03:55:45.416Z,19.32
2023-04-18T03:58:18.490Z,19.32
2023-04-18T04:00:52.013Z,19.31
2023-04-18T04:03:28.746Z,19.31
2023-04-18T04:06:02.471Z,19.31
2023-04-18T04:08:39.180Z,19.32
2023-04-18T04:11:10.426Z,19.33
2023-04-18T04:13:46.303Z,19.36
2023-04-18T04:16:20.447Z,19.37
2023-04-18T04:18:51.924Z,19.42
2023-04-18T04:21:31.293Z,19.45
2023-04-18T04:24:02.101Z,19.47
2023-04-18T04:26:35.507Z,19.52
2023-04-18T04:29:05.294Z,19.54
2023-04-18T04:31:44.742Z,19.58
2023-04-18T04:34:19.402Z,19.61
2023-04-18T04:36:53.618Z,19.64
2023-04-18T04:39:29.035Z,19.69
2023-04-18T04:42:04.169Z,19.71
2023-04-18T04:44:43.237Z,19.73
2023-04-18T04:47:21.297Z,19.74
2023-04-18T04:49:52.347Z,19.76
2023-04-18T04:52:25.968Z,19.78
2023-04-18T04:55:04.311Z,19.79
2023-04-18T04:57:35.232Z,19.79
2023-04-18T05:00:09.596Z,19.79
2023-04-18T05:02:37.193Z,19.80
2023-04-18T05:05:08.740Z,19.79
2023-04-18T05:07:41.974Z,19.78
2023-04-18T05:10:10.014Z,19.78
2023-04-18T05:12:40.639Z,19.79
2023-04-18T05:15:16.920Z,19.78
2023-04-18T05:17:47.486Z,19.80
2023-04-18T05:20:18.429Z,19.82
2023-04-18T05:22:49.340Z,19.83
2023-04-18T05:25:20.180Z,19.84
2023-04-18T05:27:53.931Z,19.86
2023-04-18T05:30:22.383Z,19.87
2023-04-18T05:32:52.316Z,19.91
2023-04-18T05:35:30.267Z,19.91
2023-04-18T05:38:07.854Z,19.93
2023-04-18T05:40:36.474Z,19.96
2023-04-18T05:43:07.250Z,19.97
2023-04-18T05:45:37.200Z,19.97
2023-04-18T05:48:18.045Z,19.96
2023-04-18T05:50:48.674Z,19.95
2023-04-18T05:53:16.656Z,19.93
2023-04-18T05:55:47.887Z,19.93
2023-04-18T05:58:18.662Z,19.91
2023-04-18T06:00:52.540Z,19.89
2023-04-18T06:03:24.137Z,19.91
2023-04-18T06:05:55.866Z,19.91
2023-04-18T06:08:31.829Z,19.88
2023-04-18T06:11:02.027Z,19.88
2023-04-18T06:13:32.187Z,19.86
2023-04-18T06:16:04.204Z,19.89
2023-04-18T06:18:38.063Z,19.88
2023-04-18T06:21:05.740Z,19.86
2023-04-18T06:23:39.465Z,19.86
2023-04-18T06:26:10.215Z,19.85
2023-04-18T06:28:43.653Z,19.86
2023-04-18T06:31:15.942Z,19.85
2023-04-18T06:33:57.430Z,19.84
2023-04-18T06:36:25.053Z,19.82
2023-04-18T06:38:58.881Z,19.81
2023-04-18T06:41:36.091Z,19.78
2023-04-18T06:44:10.512Z,19.76
2023-04-18T06:46:43.334Z,19.76
2023-04-18T06:49:14.922Z,19.73
2023-04-18T06:51:50.430Z,19.69
2023-04-18T06:54:27.675Z,19.68
2023-04-18T06:56:58.039Z,19.69
2023-04-18T06:59:26.291Z,19.69
2023-04-18T07:01:59.379Z,19.71
2023-04-18T07:04:37.382Z,19.70
2023-04-18T07:07:12.174Z,19.74
2023-04-18T07:09:42.340Z,19.72
2023-04-18T07:12:15.352Z,19.73
2023-04-18T07:14:44.628Z,19.71
2023-04-18T07:17:18.698Z,19.72
2023-04-18T07:20:00.637Z,19.71
2023-04-18T07:22:37.074Z,19.69
2023-04-18T07:25:14.001Z,19.72
2023-04-18T07:27:43.811Z,19.71
2023-04-18T07:30:14.673Z,19.69
2023-04-18T07:32:42.313Z,19.70
2023-04-18T07:35:13.350Z,19.71
2023-04-18T07:37:40.849Z,19.70
2023-04-18T07:40:10.219Z,19.71
2023-04-18T07:42:44.344Z,19.71
2023-04-18T07:45:18.163Z,19.70
2023-04-18T07:47:52.366Z,19.69
2023-04-18T07:50:22.952Z,19.69
2023-04-18T07:52:53.204Z,19.70
2023-04-18T07:55:26.692Z,19.69
2023-04-18T07:57:55.647Z,19.70
2023-04-18T08:00:29.712Z,19.70
2023-04-18T08:02:57.867Z,19.69
2023-04-18T08:05:25.549Z,19.71
2023-04-18T08:07:58.380Z,19.71
2023-04-18T08:10:26.025Z,19.72
2023-04-18T08:12:57.988Z,19.70
2023-04-18T08:15:34.511Z,19.70
2023-04-18T08:18:05.338Z,19.72
2023-04-18T08:20:39.657Z,19.72
2023-04-18T08:23:14.178Z,19.74
2023-04-18T08:25:44.873Z,19.76
2023-04-18T08:28:15.251Z,19.79
2023-04-18T08:30:49.552Z,19.80
2023-04-18T08:33:16.481Z,19.84
2023-04-18T08:35:52.088Z,19.85
2023-04-18T08:38:23.801Z,19.87
2023-04-18T08:40:57.044Z,19.90
2023-04-18T08:43:24.122Z,19.92
2023-04-18T08:45:55.003Z,19.96
2023-04-18T08:48:28.410Z,19.99
2023-04-18T08:51:06.643Z,20.02
2023-04-18T08:53:40.083Z,20.05
2023-04-18T08:56:15.620Z,20.07
2023-04-18T08:58:49.227Z,20.11
2023-04-18T09:01:24.730Z,20.15
2023-04-18T09:03:56.956Z,20.19
2023-04-18T09:06:24.356Z,20.21
2023-04-18T09:09:05.024Z,20.24
2023-04-18T09:11:37.575Z,20.26
2023-04-18T09:14:11.981Z,20.29
2023-04-18T09:16:48.693Z,20.32
2023-04-18T09:19:21.491Z,20.34
2023-04-18T09:22:03.263Z,20.40
2023-04-18T09:24:41.234Z,20.42
2023-04-18T09:27:16.988Z,20.42
2023-04-18T09:29:58.122Z,20.43
2023-04-18T09:32:42.720Z,20.44
2023-04-18T09:35:45.121Z,20.46
2023-04-18T09:38:15.504Z,20.46
2023-04-18T09:41:05.734Z,20.48
2023-04-18T09:43:36.185Z,20.49
2023-04-18T09:46:12.958Z,20.49
2023-04-18T09:48:43.305Z,20.52
2023-04-18T09:51:18.034Z,20.53
2023-04-18T09:53:47.930Z,20.54
2023-04-18T09:56:30.567Z,20.56
2023-04-18T09:59:15.704Z,20.56
2023-04-18T10:01:44.813Z,20.57
2023-04-18T10:04:18.913Z,20.56
2023-04-18T10:06:52.109Z,20.59
2023-04-18T10:09:21.863Z,20.61
2023-04-18T10:11:50.756Z,20.61
2023-04-18T10:14:23.330Z,20.59
2023-04-18T10:16:59.911Z,20.62
2023-04-18T10:19:38.078Z,20.65
2023-04-18T10:22:08.013Z,20.67
2023-04-18T10:24:56.104Z,20.69
2023-04-18T10:28:06.456Z,20.71
2023-04-18T10:30:52.981Z,20.73
2023-04-18T10:33:43.019Z,20.74
2023-04-18T10:36:19.733Z,20.77
2023-04-18T10:38:47.985Z,20.77
2023-04-18T10:41:25.830Z,20.80
2023-04-18T10:44:08.852Z,20.79
2023-04-18T10:46:43.817Z,20.80
2023-04-18T10:49:21.341Z,20.84
2023-04-18T10:51:55.473Z,20.84
2023-04-18T10:54:57.060Z,20.87
2023-04-18T10:57:37.651Z,20.87
2023-04-18T11:00:06.448Z,20.86
2023-04-18T11:02:34.454Z,20.86
2023-04-18T11:05:04.140Z,20.86
2023-04-18T11:07:44.468Z,20.83
2023-04-18T11:10:14.569Z,20.83
2023-04-18T11:12:44.705Z,20.84
2023-04-18T11:15:19.030Z,20.86
2023-04-18T11:18:06.134Z,20.88
2023-04-18T11:20:46.900Z,20.90
2023-04-18T11:23:19.399Z,20.89
2023-04-18T11:25:52.131Z,20.90
2023-04-18T11:28:22.932Z,20.92
2023-04-18T11:31:00.468Z,20.92
2023-04-18T11:33:33.817Z,20.93
2023-04-18T11:36:10.260Z,20.92
2023-04-18T11:38:43.523Z,20.94
2023-04-18T11:41:22.817Z,20.96
2023-04-18T11:43:58.944Z,20.94
2023-04-18T11:46:42.732Z,20.96
2023-04-18T11:49:31.599Z,20.96
2023-04-18T11:52:00.015Z,20.96
2023-04-18T11:54:46.901Z,20.98
2023-04-18T11:57:23.762Z,20.97
2023-04-18T12:00:02.812Z,20.96
2023-04-18T12:02:51.833Z,20.97
2023-04-18T12:05:32.859Z,20.98
2023-04-18T12:08:13.986Z,20.99
2023-04-18T12:10:48.215Z,20.98
2023-04-18T12:13:15.368Z,20.98
2023-04-18T12:15:47.435Z,20.98
2023-04-18T12:18:24.927Z,20.99
2023-04-18T12:20:57.657Z,20.99
2023-04-18T12:23:49.354Z,21.00
2023-04-18T12:26:21.404Z,20.99
2023-04-18T12:28:52.238Z,20.99
2023-04-18T12:31:27.645Z,21.00
2023-04-18T12:33:57.480Z,20.99
2023-04-18T12:36:28.516Z,20.99
2023-04-18T12:39:07.133Z,21.00
2023-04-18T12:41:34.579Z,20.99
2023-04-18T12:44:07.558Z,21.01
2023-04-18T12:46:37.636Z,21.01
2023-04-18T12:49:11.389Z,21.03
2023-04-18T12:51:41.232Z,20.99
2023-04-18T12:54:08.154Z,20.98
2023-04-18T12:56:35.162Z,20.98
2023-04-18T12:59:02.215Z,20.98
2023-04-18T13:01:31.726Z,20.96
2023-04-18T13:04:11.715Z,20.98
2023-04-18T13:06:39.830Z,20.96
2023-04-18T13:09:13.024Z,20.96
2023-04-18T13:11:44.378Z,20.96
2023-04-18T13:14:16.931Z,21.01
2023-04-18T13:16:49.223Z,20.99
2023-04-18T13:19:22.213Z,21.00
2023-04-18T13:21:50.498Z,20.99
2023-04-18T13:24:21.294Z,21.00
2023-04-18T13:26:51.185Z,20.98
2023-04-18T13:29:24.157Z,21.00
2023-04-18T13:32:02.544Z,20.99
2023-04-18T13:34:47.659Z,21.03
2023-04-18T13:37:20.535Z,21.01
2023-04-18T13:39:56.793Z,21.02
2023-04-18T13:42:29.802Z,21.00
2023-04-18T13:45:00.185Z,21.00
2023-04-18T13:47:27.667Z,21.03
2023-04-18T13:50:01.623Z,21.02
2023-04-18T13:52:34.835Z,21.02
2023-04-18T13:55:02.276Z,21.02
2023-04-18T13:57:35.584Z,21.02
2023-04-18T14:00:09.754Z,21.04
2023-04-18T14:02:40.984Z,21.06
2023-04-18T14:05:18.012Z,21.05
2023-04-18T14:07:52.635Z,21.05
2023-04-18T14:10:29.044Z,21.08
2023-04-18T14:13:01.095Z,21.11
2023-04-18T14:15:35.668Z,21.13
2023-04-18T14:18:14.934Z,21.13
2023-04-18T14:20:45.795Z,21.16
2023-04-18T14:23:23.200Z,21.17
2023-04-18T14:25:59.811Z,21.19
2023-04-18T14:28:33.989Z,21.20
2023-04-18T14:31:11.445Z,21.21
2023-04-18T14:33:48.863Z,21.22
2023-04-18T14:36:19.054Z,21.21
2023-04-18T14:38:57.557Z,21.22
2023-04-18T14:41:31.255Z,21.17
2023-04-18T14:44:01.413Z,21.16
2023-04-18T14:46:35.559Z,21.13
2023-04-18T14:49:09.048Z,21.11
2023-04-18T14:51:45.564Z,21.12
2023-04-18T14:54:16.276Z,21.11
2023-04-18T14:56:47.352Z,21.12
2023-04-18T14:59:23.385Z,21.12
2023-04-18T15:02:05.701Z,21.12
2023-04-18T15:04:38.941Z,21.12
2023-04-18T15:07:18.411Z,21.14
2023-04-18T15:09:51.931Z,21.14
2023-04-18T15:12:32.335Z,21.17
2023-04-18T15:15:06.383Z,21.17
2023-04-18T15:17:42.825Z,21.17
2023-04-18T15:20:16.247Z,21.18
2023-04-18T15:22:47.735Z,21.19
2023-04-18T15:25:29.847Z,21.19
2023-04-18T15:28:09.251Z,21.17
2023-04-18T15:30:39.239Z,21.16
2023-04-18T15:33:13.398Z,21.16
2023-04-18T15:35:45.902Z,21.16
2023-04-18T15:38:19.328Z,21.17
2023-04-18T15:40:49.182Z,21.17
2023-04-18T15:43:22.867Z,21.16
2023-04-18T15:45:56.432Z,21.16
2023-04-18T15:48:27.423Z,21.16
2023-04-18T15:51:00.055Z,21.17
2023-04-18T15:53:35.985Z,21.20
2023-04-18T15:56:09.043Z,21.19
2023-04-18T15:58:39.073Z,21.20
2023-04-18T16:01:18.112Z,21.23
2023-04-18T16:03:55.650Z,21.25
2023-04-18T16:06:28.562Z,21.27
2023-04-18T16:09:06.183Z,21.28
2023-04-18T16:11:33.603Z,21.29
2023-04-18T16:14:03.775Z,21.30
2023-04-18T16:16:39.719Z,21.31
2023-04-18T16:19:11.620Z,21.33
2023-04-18T16:21:40.970Z,21.31
2023-04-18T16:24:18.635Z,21.32
2023-04-18T16:26:49.543Z,21.27
2023-04-18T16:29:27.293Z,21.25
2023-04-18T16:32:02.266Z,21.23
2023-04-18T16:34:35.399Z,21.24
2023-04-18T16:37:05.229Z,21.25
2023-04-18T16:39:35.890Z,21.24
2023-04-18T16:42:03.608Z,21.25
2023-04-18T16:44:36.923Z,21.23
2023-04-18T16:47:07.875Z,21.24
2023-04-18T16:49:48.886Z,21.24
2023-04-18T16:52:19.797Z,21.23
2023-04-18T16:55:09.055Z,21.23
2023-04-18T16:57:42.471Z,21.24
2023-04-18T17:00:18.000Z,21.24
2023-04-18T17:02:52.873Z,21.24
2023-04-18T17:05:28.152Z,21.22
2023-04-18T17:08:09.091Z,21.23
2023-04-18T17:10:40.922Z,21.22
2023-04-18T17:13:19.863Z,21.23
2023-04-18T17:15:54.230Z,21.23
2023-04-18T17:18:30.734Z,21.20
2023-04-18T17:21:04.819Z,21.19
2023-04-18T17:23:42.632Z,21.20
2023-04-18T17:26:16.750Z,21.20
2023-04-18T17:28:46.993Z,21.19
2023-04-18T17:31:17.542Z,21.17
2023-04-18T17:33:54.139Z,21.17
2023-04-18T17:36:30.316Z,21.16
2023-04-18T17:39:05.488Z,21.14
2023-04-18T17:41:39.464Z,21.17
2023-04-18T17:44:12.512Z,21.17
2023-04-18T17:46:43.086Z,21.17
2023-04-18T17:49:14.677Z,21.21
2023-04-18T17:51:51.930Z,21.21
2023-04-18T17:54:26.247Z,21.21
2023-04-18T17:57:00.493Z,21.21
2023-04-18T17:59:33.830Z,21.20
2023-04-18T18:02:04.920Z,21.21
2023-04-18T18:04:40.201Z,21.15
2023-04-18T18:07:14.024Z,21.19
2023-04-18T18:09:44.940Z,21.19
2023-04-18T18:12:24.133Z,21.21
2023-04-18T18:14:54.896Z,21.21
2023-04-18T18:17:29.550Z,21.19
2023-04-18T18:20:00.231Z,21.18
2023-04-18T18:22:32.827Z,21.19
2023-04-18T18:25:02.569Z,21.19
2023-04-18T18:27:33.728Z,21.17
2023-04-18T18:30:06.172Z,21.16
2023-04-18T18:32:49.216Z,21.19
2023-04-18T18:35:23.158Z,21.12
2023-04-18T18:37:59.069Z,21.17
2023-04-18T18:40:38.404Z,21.16
2023-04-18T18:43:09.125Z,21.16
2023-04-18T18:45:42.399Z,21.16
2023-04-18T18:48:19.337Z,21.13
2023-04-18T18:50:54.184Z,21.12
2023-04-18T18:53:30.730Z,21.12
2023-04-18T18:56:04.026Z,21.09
2023-04-18T18:58:37.562Z,21.09
2023-04-18T19:01:09.940Z,21.07
2023-04-18T19:03:43.989Z,21.06
2023-04-18T19:06:12.453Z,21.05
2023-04-18T19:08:40.682Z,21.05
2023-04-18T19:11:14.201Z,21.05
2023-04-18T19:13:47.627Z,21.01
2023-04-18T19:16:20.013Z,21.04
2023-04-18T19:18:56.774Z,21.03
2023-04-18T19:21:24.593Z,21.04
2023-04-18T19:23:56.988Z,21.02
2023-04-18T19:26:31.774Z,21.02
2023-04-18T19:29:01.403Z,20.99
2023-04-18T19:31:35.307Z,20.98
2023-04-18T19:34:06.117Z,20.98
2023-04-18T19:36:43.502Z,20.99
2023-04-18T19:39:13.570Z,20.99
2023-04-18T19:41:48.596Z,20.97
2023-04-18T19:44:20.080Z,20.96
2023-04-18T19:46:51.996Z,20.95
2023-04-18T19:49:22.755Z,20.95
2023-04-18T19:51:53.190Z,20.95
2023-04-18T19:54:23.662Z,20.96
2023-04-18T19:56:59.517Z,20.94
2023-04-18T19:59:31.666Z,20.93
2023-04-18T20:02:05.069Z,20.93
2023-04-18T20:04:38.298Z,20.92
2023-04-18T20:07:20.023Z,20.91
2023-04-18T20:09:53.511Z,20.89
2023-04-18T20:12:33.342Z,20.89
2023-04-18T20:15:09.865Z,20.88
2023-04-18T20:17:46.664Z,20.88
2023-04-18T20:20:17.332Z,20.87
2023-04-18T20:22:47.025Z,20.88
2023-04-18T20:25:22.366Z,20.87
2023-04-18T20:27:55.775Z,20.86
2023-04-18T20:30:26.284Z,20.86
2023-04-18T20:32:59.123Z,20.80
2023-04-18T20:35:30.927Z,20.83
2023-04-18T20:38:00.928Z,20.83
2023-04-18T20:40:28.766Z,20.81
2023-04-18T20:42:58.621Z,20.81
2023-04-18T20:45:34.002Z,20.81
2023-04-18T20:48:04.739Z,20.79
2023-04-18T20:50:41.547Z,20.78
2023-04-18T20:53:19.697Z,20.77
2023-04-18T20:55:49.850Z,20.76
2023-04-18T20:58:16.866Z,20.75
2023-04-18T21:00:47.113Z,20.75
2023-04-18T21:03:17.716Z,20.75
2023-04-18T21:05:47.983Z,20.76
2023-04-18T21:08:26.630Z,20.76
2023-04-18T21:11:04.242Z,20.75
2023-04-18T21:13:43.896Z,20.72
2023-04-18T21:16:17.257Z,20.73
2023-04-18T21:18:44.302Z,20.72
2023-04-18T21:21:16.131Z,20.73
2023-04-18T21:23:45.780Z,20.71
2023-04-18T21:26:16.609Z,20.71
2023-04-18T21:29:02.850Z,20.71
2023-04-18T21:31:39.802Z,20.69
2023-04-18T21:34:14.053Z,20.69
2023-04-18T21:36:48.114Z,20.68
2023-04-18T21:39:18.259Z,20.69
2023-04-18T21:41:45.897Z,20.68
2023-04-18T21:44:19.270Z,20.67
2023-04-18T21:46:46.679Z,20.66
2023-04-18T21:49:26.475Z,20.67
2023-04-18T21:52:00.052Z,20.67
2023-04-18T21:54:30.568Z,20.67
2023-04-18T21:57:01.289Z,20.66
2023-04-18T21:59:29.099Z,20.65
2023-04-18T22:01:59.387Z,20.66
2023-04-18T22:04:35.587Z,20.65
2023-04-18T22:07:02.541Z,20.65
2023-04-18T22:09:40.948Z,20.65
2023-04-18T22:12:11.124Z,20.64
2023-04-18T22:14:48.983Z,20.62
2023-04-18T22:17:23.046Z,20.61
2023-04-18T22:19:53.938Z,20.59
2023-04-18T22:22:27.648Z,20.58
2023-04-18T22:24:55.266Z,20.62
2023-04-18T22:27:25.975Z,20.63
2023-04-18T22:29:56.260Z,20.60
2023-04-18T22:32:32.487Z,20.58
2023-04-18T22:35:06.113Z,20.58
2023-04-18T22:37:37.182Z,20.55
2023-04-18T22:40:07.706Z,20.56
2023-04-18T22:42:41.114Z,20.56
2023-04-18T22:45:12.810Z,20.53
2023-04-18T22:47:43.424Z,20.52
2023-04-18T22:50:11.142Z,20.52
2023-04-18T22:52:40.065Z,20.51
2023-04-18T22:55:12.406Z,20.51
2023-04-18T22:57:40.199Z,20.47
2023-04-18T23:00:14.317Z,20.47
2023-04-18T23:02:44.450Z,20.45
2023-04-18T23:05:18.091Z,20.46
2023-04-18T23:07:54.325Z,20.45
2023-04-18T23:10:24.441Z,20.44
2023-04-18T23:12:52.774Z,20.42
2023-04-18T23:15:22.201Z,20.41
2023-04-18T23:17:54.154Z,20.43
2023-04-18T23:20:25.006Z,20.42
2023-04-18T23:22:55.072Z,20.40
2023-04-18T23:25:25.668Z,20.41
2023-04-18T23:28:01.479Z,20.37
2023-04-18T23:30:35.810Z,20.38
2023-04-18T23:33:06.082Z,20.37
2023-04-18T23:35:36.809Z,20.37
2023-04-18T23:38:04.033Z,20.37
2023-04-18T23:40:34.734Z,20.35
2023-04-18T23:43:06.248Z,20.35
2023-04-18T23:45:36.476Z,20.33
2023-04-18T23:48:04.101Z,20.33
2023-04-18T23:50:35.807Z,20.31
2023-04-18T23:53:10.226Z,20.33
2023-04-18T23:55:40.621Z,20.32
2023-04-18T23:58:11.811Z,20.31
